ESGJ/JKG METAR and TAF weather

Enter ICAO airport designator
Station Type Date Time Source
ESGJ METAR 2020/04/04 05:20 UTC NOAA

ESGJ 040520Z AUTO 23005KT 9999 NCD M02/M03 Q1014


Station Type Date Time Source
ESGJ Decoded METAR 2020/04/04 05:20 UTC NOAA

Jonkoping Flygplats, Sweden (ESGJ) 57-46N 014-05E 232M
Apr 04, 2020 - 01:20 AM EDT / 2020.04.04 0520 UTC
Wind: from the SW (230 degrees) at 6 MPH (5 KT):0
Visibility: greater than 7 mile(s):0
Temperature: 28 F (-2 C)
Windchill: 21 F (-6 C):1
Dew Point: 26 F (-3 C)
Relative Humidity: 92%
Pressure (altimeter): 29.94 in. Hg (1014 hPa)
ob: ESGJ 040520Z AUTO 23005KT 9999 NCD M02/M03 Q1014
cycle: 5

Station Type Date Time Source
ESGJ TAF 2015/05/01 23:06 UTC NOAA

TAF TAF ESGJ 302359Z 3023/0101 CNL

Example: see airport list